createdAt,value
2022-08-02T00:01:55.618Z,100708.13
2022-08-02T00:03:57.612Z,100703.34
2022-08-02T00:05:59.237Z,100707.72
2022-08-02T00:08:02.158Z,100705.75
2022-08-02T00:10:05.300Z,100699.41
2022-08-02T00:12:08.463Z,100700.97
2022-08-02T00:14:10.377Z,100702.13
2022-08-02T00:16:12.238Z,100702.91
2022-08-02T00:18:18.775Z,100702.53
2022-08-02T00:20:20.508Z,100698.94
2022-08-02T00:22:22.094Z,100700.13
2022-08-02T00:24:30.630Z,100697.66
2022-08-02T00:26:32.770Z,100694.38
2022-08-02T00:28:34.490Z,100696.28
2022-08-02T00:30:36.098Z,100692.22
2022-08-02T00:32:37.732Z,100696.44
2022-08-02T00:34:39.305Z,100693.13
2022-08-02T00:36:40.980Z,100697.84
2022-08-02T00:38:42.794Z,100695.06
2022-08-02T00:40:48.943Z,100691.44
2022-08-02T00:43:01.533Z,100691.34
2022-08-02T00:45:03.863Z,100688.19
2022-08-02T00:47:05.819Z,100691.44
2022-08-02T00:49:07.635Z,100697.84
2022-08-02T00:51:09.253Z,100693.56
2022-08-02T00:53:10.828Z,100693.94
2022-08-02T00:55:12.628Z,100704.25
2022-08-02T00:57:20.407Z,100703.53
2022-08-02T00:59:22.006Z,100710.25
2022-08-02T01:01:23.755Z,100711.81
2022-08-02T01:03:25.383Z,100713.88
2022-08-02T01:05:27.187Z,100725.69
2022-08-02T01:07:28.826Z,100723.59
2022-08-02T01:09:30.415Z,100724.41
2022-08-02T01:11:33.219Z,100720.44
2022-08-02T01:13:36.850Z,100723.94
2022-08-02T01:15:43.509Z,100716.56
2022-08-02T01:17:50.599Z,100722.09
2022-08-02T01:20:02.532Z,100729.66
2022-08-02T01:22:58.050Z,100736.47
2022-08-02T01:25:25.405Z,100736.84
2022-08-02T01:27:39.963Z,100738.88
2022-08-02T01:29:49.207Z,100741.22
2022-08-02T01:31:57.197Z,100741.63
2022-08-02T01:34:04.345Z,100744.28
2022-08-02T01:36:11.789Z,100743.13
2022-08-02T01:38:17.640Z,100737.16
2022-08-02T01:40:23.888Z,100740.28
2022-08-02T01:42:27.104Z,100744.59
2022-08-02T01:44:33.026Z,100742.16
2022-08-02T01:46:40.855Z,100733.03
2022-08-02T01:48:45.309Z,100741.28
2022-08-02T01:50:49.151Z,100731.31
2022-08-02T01:52:53.703Z,100735.94
2022-08-02T01:55:01.414Z,100726.47
2022-08-02T01:57:06.424Z,100729.56
2022-08-02T01:59:11.324Z,100734.31
2022-08-02T02:01:18.351Z,100731.06
2022-08-02T02:03:25.134Z,100727.09
2022-08-02T02:05:29.455Z,100726.13
2022-08-02T02:07:34.853Z,100731.41
2022-08-02T02:09:50.929Z,100728.47
2022-08-02T02:12:12.171Z,100726.34
2022-08-02T02:14:17.693Z,100728.44
2022-08-02T02:16:19.815Z,100730.41
2022-08-02T02:18:25.485Z,100726.84
2022-08-02T02:20:27.192Z,100734.28
2022-08-02T02:22:29.131Z,100731.84
2022-08-02T02:24:31.088Z,100728.09
2022-08-02T02:26:35.905Z,100729.69
2022-08-02T02:28:40.892Z,100729.81
2022-08-02T02:30:48.621Z,100728.22
2022-08-02T02:32:53.002Z,100730.09
2022-08-02T02:34:57.789Z,100721.69
2022-08-02T02:37:02.403Z,100721.69
2022-08-02T02:39:11.582Z,100722.47
2022-08-02T02:41:17.422Z,100716.97
2022-08-02T02:43:21.480Z,100712.34
2022-08-02T02:45:24.839Z,100714.06
2022-08-02T02:47:40.889Z,100718.84
2022-08-02T02:49:45.082Z,100718.13
2022-08-02T02:51:49.193Z,100723.31
2022-08-02T02:54:31.015Z,100719.72
2022-08-02T02:56:15.340Z,100730.25
2022-08-02T02:58:17.476Z,100730.00
2022-08-02T03:00:19.131Z,100730.31
2022-08-02T03:02:21.187Z,100735.91
2022-08-02T03:04:24.908Z,100734.69
2022-08-02T03:06:26.627Z,100731.13
2022-08-02T03:08:30.145Z,100737.97
2022-08-02T03:10:32.835Z,100735.19
2022-08-02T03:12:35.744Z,100740.34
2022-08-02T03:14:42.017Z,100737.50
2022-08-02T03:16:44.688Z,100736.69
2022-08-02T03:18:46.288Z,100749.50
2022-08-02T03:20:47.961Z,100745.41
2022-08-02T03:22:50.119Z,100743.69
2022-08-02T03:24:53.090Z,100751.44
2022-08-02T03:26:57.039Z,100755.28
2022-08-02T03:28:58.635Z,100759.28
2022-08-02T03:31:00.753Z,100755.38
2022-08-02T03:33:02.383Z,100755.44
2022-08-02T03:35:06.754Z,100757.47
2022-08-02T03:37:08.923Z,100759.03
2022-08-02T03:39:12.258Z,100759.53
2022-08-02T03:41:18.683Z,100755.28
2022-08-02T03:43:21.223Z,100760.41
2022-08-02T03:45:23.983Z,100749.88
2022-08-02T03:47:27.667Z,100747.56
2022-08-02T03:49:29.648Z,100757.00
2022-08-02T03:51:31.607Z,100756.56
2022-08-02T03:53:33.671Z,100745.59
2022-08-02T03:55:35.820Z,100747.84
2022-08-02T03:57:39.540Z,100746.78
2022-08-02T03:59:41.764Z,100754.28
2022-08-02T04:01:43.362Z,100746.06
2022-08-02T04:03:44.925Z,100749.28
2022-08-02T04:06:03.691Z,100753.03
2022-08-02T04:08:36.923Z,100749.81
2022-08-02T04:10:27.750Z,100747.50
2022-08-02T04:12:29.319Z,100745.84
2022-08-02T04:14:36.140Z,100754.09
2022-08-02T04:16:43.178Z,100744.97
2022-08-02T04:18:49.902Z,100751.47
2022-08-02T04:20:53.036Z,100746.69
2022-08-02T04:22:58.438Z,100751.97
2022-08-02T04:25:04.793Z,100754.25
2022-08-02T04:27:49.208Z,100757.88
2022-08-02T04:29:33.966Z,100762.41
2022-08-02T04:31:36.163Z,100760.97
2022-08-02T04:33:38.360Z,100757.56
2022-08-02T04:35:40.093Z,100754.31
2022-08-02T04:38:08.670Z,100756.94
2022-08-02T04:40:08.232Z,100761.84
2022-08-02T04:42:10.351Z,100757.38
2022-08-02T04:44:12.750Z,100756.47
2022-08-02T04:46:15.698Z,100756.72
2022-08-02T04:48:17.263Z,100764.44
2022-08-02T04:50:18.919Z,100760.72
2022-08-02T04:52:20.565Z,100765.78
2022-08-02T04:54:22.153Z,100764.59
2022-08-02T04:56:23.694Z,100775.91
2022-08-02T04:58:39.920Z,100768.34
2022-08-02T05:00:42.307Z,100775.78
2022-08-02T05:02:45.201Z,100769.84
2022-08-02T05:04:46.765Z,100770.94
2022-08-02T05:06:48.304Z,100770.06
2022-08-02T05:08:52.972Z,100773.94
2022-08-02T05:10:55.045Z,100778.56
2022-08-02T05:12:56.729Z,100775.03
2022-08-02T05:14:58.381Z,100774.66
2022-08-02T05:16:59.976Z,100781.41
2022-08-02T05:19:03.568Z,100788.91
2022-08-02T05:21:05.211Z,100781.47
2022-08-02T05:23:06.984Z,100781.09
2022-08-02T05:25:09.804Z,100788.25
2022-08-02T05:27:17.117Z,100786.81
2022-08-02T05:29:23.286Z,100795.88
2022-08-02T05:31:25.066Z,100795.44
2022-08-02T05:33:27.008Z,100783.53
2022-08-02T05:35:30.056Z,100791.56
2022-08-02T05:37:32.287Z,100790.84
2022-08-02T05:39:34.875Z,100789.69
2022-08-02T05:41:38.845Z,100790.78
2022-08-02T05:43:40.442Z,100790.78
2022-08-02T05:45:42.205Z,100790.34
2022-08-02T05:47:44.750Z,100787.28
2022-08-02T05:49:46.329Z,100781.41
2022-08-02T05:51:57.069Z,100788.75
2022-08-02T05:54:06.952Z,100790.34
2022-08-02T05:56:16.800Z,100789.31
2022-08-02T05:58:27.546Z,100791.25
2022-08-02T06:00:31.581Z,100798.31
2022-08-02T06:02:45.019Z,100798.38
2022-08-02T06:05:04.068Z,100800.47
2022-08-02T06:07:11.995Z,100798.97
2022-08-02T06:09:15.798Z,100802.97
2022-08-02T06:11:21.746Z,100795.91
2022-08-02T06:13:25.389Z,100799.28
2022-08-02T06:15:27.431Z,100803.50
2022-08-02T06:17:30.141Z,100795.88
2022-08-02T06:19:48.853Z,100804.00
2022-08-02T06:22:34.713Z,100801.19
2022-08-02T06:24:21.677Z,100798.28
2022-08-02T06:26:24.115Z,100803.47
2022-08-02T06:28:26.368Z,100798.31
2022-08-02T06:30:28.632Z,100798.25
2022-08-02T06:32:32.259Z,100794.56
2022-08-02T06:34:36.654Z,100802.59
2022-08-02T06:36:47.516Z,100802.22
2022-08-02T06:39:01.482Z,100805.56
2022-08-02T06:41:06.547Z,100796.63
2022-08-02T06:43:12.579Z,100797.09
2022-08-02T06:45:16.900Z,100798.72
2022-08-02T06:47:18.659Z,100800.59
2022-08-02T06:49:20.449Z,100802.75
2022-08-02T06:51:22.526Z,100806.84
2022-08-02T06:53:24.146Z,100810.53
2022-08-02T06:55:25.896Z,100812.25
2022-08-02T06:57:29.511Z,100808.81
2022-08-02T06:59:33.891Z,100807.31
2022-08-02T07:01:38.603Z,100811.31
2022-08-02T07:03:41.230Z,100816.88
2022-08-02T07:05:43.138Z,100812.13
2022-08-02T07:07:45.149Z,100813.72
2022-08-02T07:09:56.621Z,100810.31
2022-08-02T07:12:02.933Z,100812.41
2022-08-02T07:14:05.960Z,100809.25
2022-08-02T07:16:07.793Z,100816.28
2022-08-02T07:18:09.437Z,100820.75
2022-08-02T07:20:15.786Z,100818.09
2022-08-02T07:22:17.493Z,100813.84
2022-08-02T07:24:19.281Z,100815.88
2022-08-02T07:26:20.937Z,100808.00
2022-08-02T07:28:24.740Z,100817.13
2022-08-02T07:30:28.187Z,100810.06
2022-08-02T07:32:31.498Z,100804.53
2022-08-02T07:34:33.283Z,100800.19
2022-08-02T07:36:34.931Z,100806.44
2022-08-02T07:38:37.502Z,100801.31
2022-08-02T07:40:39.327Z,100806.13
2022-08-02T07:42:41.758Z,100805.72
2022-08-02T07:44:46.120Z,100798.66
2022-08-02T07:46:52.004Z,100798.22
2022-08-02T07:48:53.755Z,100809.72
2022-08-02T07:50:55.424Z,100808.53
2022-08-02T07:52:57.642Z,100808.13
2022-08-02T07:54:59.725Z,100800.59
2022-08-02T07:57:01.295Z,100803.31
2022-08-02T07:59:03.065Z,100804.53
2022-08-02T08:01:04.775Z,100802.06
2022-08-02T08:03:07.843Z,100795.75
2022-08-02T08:05:10.134Z,100791.78
2022-08-02T08:07:11.711Z,100793.38
2022-08-02T08:09:13.276Z,100800.09
2022-08-02T08:11:14.933Z,100787.88
2022-08-02T08:13:16.568Z,100802.47
2022-08-02T08:15:18.209Z,100787.56
2022-08-02T08:17:20.612Z,100788.34
2022-08-02T08:19:49.967Z,100786.81
2022-08-02T08:21:45.138Z,100791.53
2022-08-02T08:23:46.747Z,100790.75
2022-08-02T08:25:48.429Z,100790.75
2022-08-02T08:27:50.570Z,100791.91
2022-08-02T08:29:52.210Z,100789.50
2022-08-02T08:31:53.843Z,100787.50
2022-08-02T08:33:55.438Z,100795.00
2022-08-02T08:35:58.453Z,100786.69
2022-08-02T08:38:04.191Z,100787.06
2022-08-02T08:40:10.405Z,100781.97
2022-08-02T08:42:12.390Z,100786.63
2022-08-02T08:44:14.325Z,100785.47
2022-08-02T08:46:24.335Z,100785.50
2022-08-02T08:48:31.070Z,100782.78
2022-08-02T08:50:38.859Z,100784.81
2022-08-02T08:52:47.724Z,100776.50
2022-08-02T08:54:50.152Z,100783.97
2022-08-02T08:56:54.233Z,100783.97
2022-08-02T08:58:56.139Z,100780.03
2022-08-02T09:00:58.563Z,100788.75
2022-08-02T09:03:02.956Z,100780.84
2022-08-02T09:05:05.329Z,100784.78
2022-08-02T09:07:07.024Z,100787.97
2022-08-02T09:09:11.069Z,100789.19
2022-08-02T09:11:14.418Z,100793.53
2022-08-02T09:13:31.174Z,100790.41
2022-08-02T09:15:42.153Z,100794.72
2022-08-02T09:17:50.543Z,100785.25
2022-08-02T09:20:07.321Z,100785.63
2022-08-02T09:22:11.321Z,100771.03
2022-08-02T09:24:19.938Z,100775.78
2022-08-02T09:26:22.993Z,100769.09
2022-08-02T09:28:28.773Z,100776.97
2022-08-02T09:30:30.514Z,100772.59
2022-08-02T09:32:43.857Z,100767.03
2022-08-02T09:34:47.653Z,100763.84
2022-08-02T09:36:54.502Z,100769.38
2022-08-02T09:38:58.369Z,100764.19
2022-08-02T09:41:01.499Z,100767.78
2022-08-02T09:43:03.233Z,100758.78
2022-08-02T09:45:05.909Z,100761.91
2022-08-02T09:47:14.673Z,100761.53
2022-08-02T09:49:17.606Z,100758.34
2022-08-02T09:51:20.964Z,100764.31
2022-08-02T09:53:23.525Z,100767.06
2022-08-02T09:55:26.345Z,100764.31
2022-08-02T09:57:29.977Z,100768.31
2022-08-02T09:59:31.782Z,100765.53
2022-08-02T10:01:37.408Z,100754.47
2022-08-02T10:03:54.069Z,100757.63
2022-08-02T10:06:02.178Z,100756.44
2022-08-02T10:08:04.823Z,100759.63
2022-08-02T10:10:07.371Z,100748.16
2022-08-02T10:12:09.991Z,100750.97
2022-08-02T10:14:15.835Z,100747.00
2022-08-02T10:16:18.410Z,100744.25
2022-08-02T10:18:37.655Z,100737.13
2022-08-02T10:20:44.517Z,100744.25
2022-08-02T10:22:47.038Z,100746.59
2022-08-02T10:24:50.119Z,100740.28
2022-08-02T10:26:53.384Z,100745.41
2022-08-02T10:28:55.145Z,100735.16
2022-08-02T10:31:00.974Z,100744.63
2022-08-02T10:33:04.193Z,100728.00
2022-08-02T10:35:19.641Z,100728.78
2022-08-02T10:37:29.711Z,100721.28
2022-08-02T10:39:38.889Z,100722.44
2022-08-02T10:41:45.568Z,100716.13
2022-08-02T10:43:50.314Z,100712.53
2022-08-02T10:45:52.027Z,100709.78
2022-08-02T10:48:03.544Z,100707.41
2022-08-02T10:50:08.627Z,100698.69
2022-08-02T10:52:11.074Z,100691.19
2022-08-02T10:54:17.854Z,100705.81
2022-08-02T10:56:45.588Z,100704.66
2022-08-02T10:58:47.215Z,100703.44
2022-08-02T11:00:49.984Z,100701.06
2022-08-02T11:02:53.450Z,100694.72
2022-08-02T11:05:06.332Z,100691.53
2022-08-02T11:07:12.701Z,100695.53
2022-08-02T11:09:31.410Z,100685.63
2022-08-02T11:12:00.918Z,100698.28
2022-08-02T11:14:14.621Z,100692.75
2022-08-02T11:16:16.307Z,100682.84
2022-08-02T11:18:18.541Z,100689.56
2022-08-02T11:20:21.250Z,100676.84
2022-08-02T11:22:25.846Z,100687.94
2022-08-02T11:24:29.213Z,100682.38
2022-08-02T11:26:46.677Z,100673.22
2022-08-02T11:28:49.404Z,100675.97
2022-08-02T11:30:58.545Z,100671.25
2022-08-02T11:33:01.089Z,100675.94
2022-08-02T11:35:02.975Z,100660.84
2022-08-02T11:37:04.975Z,100675.13
2022-08-02T11:39:10.622Z,100666.34
2022-08-02T11:41:46.806Z,100664.25
2022-08-02T11:43:40.840Z,100665.00
2022-08-02T11:45:42.520Z,100656.56
2022-08-02T11:47:52.697Z,100663.16
2022-08-02T11:50:04.872Z,100666.97
2022-08-02T11:52:07.815Z,100660.72
2022-08-02T11:54:09.476Z,100662.91
2022-08-02T11:56:12.097Z,100663.91
2022-08-02T11:58:13.733Z,100652.13
2022-08-02T12:00:17.699Z,100655.59
2022-08-02T12:02:20.483Z,100658.28
2022-08-02T12:04:23.697Z,100657.44
2022-08-02T12:06:28.170Z,100663.28
2022-08-02T12:08:29.722Z,100652.03
2022-08-02T12:10:32.359Z,100661.06
2022-08-02T12:12:34.217Z,100653.69
2022-08-02T12:14:43.281Z,100655.13
2022-08-02T12:16:45.290Z,100653.84
2022-08-02T12:18:49.172Z,100659.88
2022-08-02T12:20:52.103Z,100652.69
2022-08-02T12:22:53.818Z,100656.31
2022-08-02T12:24:56.952Z,100658.22
2022-08-02T12:26:58.758Z,100656.72
2022-08-02T12:29:00.375Z,100657.78
2022-08-02T12:31:02.325Z,100652.53
2022-08-02T12:33:12.901Z,100651.47
2022-08-02T12:35:26.368Z,100643.41
2022-08-02T12:37:30.110Z,100646.94
2022-08-02T12:39:37.791Z,100647.84
2022-08-02T12:41:39.820Z,100640.25
2022-08-02T12:43:57.406Z,100641.19
2022-08-02T12:45:59.055Z,100639.84
2022-08-02T12:48:01.437Z,100636.72
2022-08-02T12:50:13.876Z,100633.66
2022-08-02T12:52:19.931Z,100639.06
2022-08-02T12:54:30.686Z,100632.94
2022-08-02T12:56:37.884Z,100625.47
2022-08-02T12:58:48.590Z,100628.50
2022-08-02T13:00:53.474Z,100618.84
2022-08-02T13:02:57.303Z,100619.13
2022-08-02T13:04:59.596Z,100617.84
2022-08-02T13:07:01.716Z,100620.66
2022-08-02T13:09:12.461Z,100615.97
2022-08-02T13:11:16.050Z,100610.72
2022-08-02T13:13:17.656Z,100620.97
2022-08-02T13:15:46.506Z,100617.03
2022-08-02T13:17:42.777Z,100617.19
2022-08-02T13:19:44.397Z,100616.38
2022-08-02T13:22:02.382Z,100612.19
2022-08-02T13:24:06.101Z,100602.97
2022-08-02T13:26:31.321Z,100609.69
2022-08-02T13:28:33.230Z,100604.69
2022-08-02T13:30:34.993Z,100596.25
2022-08-02T13:32:36.724Z,100602.13
2022-08-02T13:34:38.356Z,100602.56
2022-08-02T13:36:39.989Z,100599.13
2022-08-02T13:38:41.812Z,100596.50
2022-08-02T13:41:03.164Z,100594.75
2022-08-02T13:43:06.465Z,100587.09
2022-08-02T13:45:12.983Z,100593.53
2022-08-02T13:47:15.727Z,100589.00
2022-08-02T13:49:50.566Z,100600.84
2022-08-02T13:51:53.643Z,100584.84
2022-08-02T13:53:55.286Z,100585.03
2022-08-02T13:55:56.988Z,100582.25
2022-08-02T13:57:58.893Z,100580.88
2022-08-02T14:00:02.184Z,100578.47
2022-08-02T14:02:07.016Z,100579.09
2022-08-02T14:04:09.622Z,100582.22
2022-08-02T14:06:11.293Z,100580.31
2022-08-02T14:08:16.376Z,100588.91
2022-08-02T14:10:18.850Z,100586.19
2022-08-02T14:12:20.600Z,100588.94
2022-08-02T14:14:22.204Z,100592.16
2022-08-02T14:16:33.009Z,100581.56
2022-08-02T14:18:34.975Z,100574.38
2022-08-02T14:20:36.582Z,100577.53
2022-08-02T14:22:38.227Z,100573.44
2022-08-02T14:24:40.555Z,100574.13
2022-08-02T14:26:42.220Z,100572.22
2022-08-02T14:28:44.003Z,100568.44
2022-08-02T14:30:45.642Z,100564.84
2022-08-02T14:32:48.605Z,100557.97
2022-08-02T14:34:50.337Z,100566.97
2022-08-02T14:36:54.124Z,100567.22
2022-08-02T14:38:56.705Z,100562.75
2022-08-02T14:40:58.406Z,100550.56
2022-08-02T14:43:00.853Z,100555.84
2022-08-02T14:45:02.615Z,100548.47
2022-08-02T14:47:04.446Z,100550.13
2022-08-02T14:49:09.461Z,100549.88
2022-08-02T14:51:14.044Z,100554.19
2022-08-02T14:53:15.689Z,100548.53
2022-08-02T14:55:17.681Z,100541.59
2022-08-02T14:57:19.457Z,100537.25
2022-08-02T14:59:21.798Z,100537.19
2022-08-02T15:01:25.970Z,100533.50
2022-08-02T15:03:29.620Z,100544.03
2022-08-02T15:05:32.867Z,100540.88
2022-08-02T15:07:38.272Z,100537.47
2022-08-02T15:09:43.638Z,100535.94
2022-08-02T15:11:47.920Z,100543.31
2022-08-02T15:13:50.467Z,100537.16
2022-08-02T15:15:55.390Z,100537.81
2022-08-02T15:17:57.060Z,100534.53
2022-08-02T15:20:02.986Z,100539.31
2022-08-02T15:22:10.626Z,100526.09
2022-08-02T15:24:18.072Z,100534.81
2022-08-02T15:26:19.672Z,100534.38
2022-08-02T15:28:21.309Z,100531.50
2022-08-02T15:30:22.928Z,100532.78
2022-08-02T15:32:24.521Z,100530.94
2022-08-02T15:34:26.123Z,100529.44
2022-08-02T15:36:27.836Z,100529.44
2022-08-02T15:38:30.895Z,100530.25
2022-08-02T15:40:32.784Z,100530.72
2022-08-02T15:42:34.464Z,100527.66
2022-08-02T15:44:36.053Z,100528.00
2022-08-02T15:46:39.597Z,100525.22
2022-08-02T15:48:41.314Z,100522.50
2022-08-02T15:50:42.963Z,100530.34
2022-08-02T15:52:44.559Z,100530.03
2022-08-02T15:54:47.619Z,100522.88
2022-08-02T15:56:49.663Z,100520.84
2022-08-02T15:58:51.688Z,100526.56
2022-08-02T16:00:55.725Z,100526.75
2022-08-02T16:02:57.336Z,100521.59
2022-08-02T16:04:58.955Z,100517.38
2022-08-02T16:07:01.629Z,100518.09
2022-08-02T16:09:04.075Z,100519.28
2022-08-02T16:11:07.046Z,100518.22
2022-08-02T16:13:08.686Z,100522.47
2022-08-02T16:15:10.662Z,100515.91
2022-08-02T16:17:12.325Z,100513.19
2022-08-02T16:19:46.317Z,100518.38
2022-08-02T16:21:35.693Z,100514.63
2022-08-02T16:24:01.058Z,100518.91
2022-08-02T16:25:59.099Z,100517.03
2022-08-02T16:28:07.177Z,100511.34
2022-08-02T16:30:11.363Z,100518.06
2022-08-02T16:32:13.206Z,100517.81
2022-08-02T16:34:15.451Z,100511.78
2022-08-02T16:36:19.598Z,100520.09
2022-08-02T16:38:21.959Z,100516.94
2022-08-02T16:40:23.754Z,100513.47
2022-08-02T16:42:25.898Z,100515.50
2022-08-02T16:44:30.109Z,100517.72
2022-08-02T16:46:31.993Z,100522.25
2022-08-02T16:48:33.647Z,100511.06
2022-08-02T16:50:36.649Z,100506.69
2022-08-02T16:52:38.801Z,100511.09
2022-08-02T16:54:41.013Z,100504.03
2022-08-02T16:56:42.660Z,100509.41
2022-08-02T16:58:44.882Z,100506.56
2022-08-02T17:00:48.248Z,100506.66
2022-08-02T17:02:50.934Z,100502.41
2022-08-02T17:04:53.170Z,100502.72
2022-08-02T17:06:54.797Z,100504.28
2022-08-02T17:08:59.598Z,100502.50
2022-08-02T17:11:03.194Z,100502.13
2022-08-02T17:13:11.218Z,100498.13
2022-08-02T17:16:01.290Z,100499.66
2022-08-02T17:17:40.592Z,100505.31
2022-08-02T17:19:44.774Z,100496.81
2022-08-02T17:21:49.775Z,100495.50
2022-08-02T17:24:07.827Z,100496.19
2022-08-02T17:26:10.143Z,100497.72
2022-08-02T17:28:14.911Z,100495.25
2022-08-02T17:30:17.132Z,100495.69
2022-08-02T17:32:29.237Z,100503.59
2022-08-02T17:34:32.690Z,100498.72
2022-08-02T17:36:35.055Z,100495.44
2022-08-02T17:38:36.729Z,100503.25
2022-08-02T17:40:52.065Z,100494.53
2022-08-02T17:42:53.726Z,100498.47
2022-08-02T17:45:00.856Z,100505.19
2022-08-02T17:47:08.718Z,100502.94
2022-08-02T17:49:13.748Z,100504.47
2022-08-02T17:51:33.150Z,100504.38
2022-08-02T17:53:38.506Z,100503.97
2022-08-02T17:55:42.572Z,100497.31
2022-08-02T17:57:57.439Z,100494.91
2022-08-02T18:00:04.188Z,100490.50
2022-08-02T18:02:06.100Z,100500.81
2022-08-02T18:04:09.788Z,100501.16
2022-08-02T18:06:11.446Z,100507.91
2022-08-02T18:08:14.362Z,100505.50
2022-08-02T18:10:17.007Z,100498.31
2022-08-02T18:12:19.057Z,100501.03
2022-08-02T18:14:24.438Z,100502.25
2022-08-02T18:16:28.154Z,100503.81
2022-08-02T18:18:30.734Z,100500.22
2022-08-02T18:20:32.526Z,100507.38
2022-08-02T18:22:34.089Z,100497.81
2022-08-02T18:24:37.161Z,100503.38
2022-08-02T18:26:39.826Z,100497.00
2022-08-02T18:28:45.427Z,100498.66
2022-08-02T18:30:48.060Z,100497.44
2022-08-02T18:33:59.891Z,100499.41
2022-08-02T18:35:11.695Z,100501.00
2022-08-02T18:37:14.115Z,100507.38
2022-08-02T18:39:19.320Z,100494.66
2022-08-02T18:41:22.200Z,100504.22
2022-08-02T18:43:29.604Z,100512.59
2022-08-02T18:46:01.628Z,100505.47
2022-08-02T18:47:53.237Z,100513.00
2022-08-02T18:49:56.291Z,100502.69
2022-08-02T18:51:58.053Z,100497.16
2022-08-02T18:54:00.977Z,100504.28
2022-08-02T18:56:04.222Z,100503.94
2022-08-02T18:58:18.761Z,100503.94
2022-08-02T19:00:25.817Z,100502.00
2022-08-02T19:02:28.254Z,100508.38
2022-08-02T19:04:32.916Z,100498.09
2022-08-02T19:06:34.672Z,100502.91
2022-08-02T19:08:36.276Z,100503.78
2022-08-02T19:10:38.455Z,100500.63
2022-08-02T19:12:51.703Z,100501.84
2022-08-02T19:14:55.182Z,100496.72
2022-08-02T19:16:59.169Z,100501.94
2022-08-02T19:19:00.752Z,100504.38
2022-08-02T19:21:07.341Z,100497.63
2022-08-02T19:23:10.461Z,100499.25
2022-08-02T19:25:16.938Z,100498.13
2022-08-02T19:27:25.889Z,100499.34
2022-08-02T19:29:42.965Z,100501.78
2022-08-02T19:32:00.202Z,100502.53
2022-08-02T19:34:07.081Z,100503.38
2022-08-02T19:36:09.716Z,100510.59
2022-08-02T19:38:13.322Z,100509.44
2022-08-02T19:40:15.686Z,100509.06
2022-08-02T19:42:18.513Z,100512.69
2022-08-02T19:44:28.888Z,100507.97
2022-08-02T19:46:31.217Z,100508.81
2022-08-02T19:48:34.231Z,100513.25
2022-08-02T19:50:35.814Z,100513.25
2022-08-02T19:52:37.462Z,100507.31
2022-08-02T19:54:54.147Z,100506.97
2022-08-02T19:56:58.470Z,100511.78
2022-08-02T19:59:00.815Z,100509.38
2022-08-02T20:01:16.754Z,100513.34
2022-08-02T20:03:19.587Z,100509.38
2022-08-02T20:05:42.882Z,100510.59
2022-08-02T20:07:56.513Z,100522.09
2022-08-02T20:09:58.990Z,100517.31
2022-08-02T20:12:02.064Z,100513.78
2022-08-02T20:14:04.249Z,100518.56
2022-08-02T20:16:06.358Z,100513.44
2022-08-02T20:18:09.005Z,100513.88
2022-08-02T20:20:12.083Z,100516.28
2022-08-02T20:22:16.475Z,100511.53
2022-08-02T20:24:18.312Z,100514.34
2022-08-02T20:26:19.952Z,100512.78
2022-08-02T20:28:23.588Z,100513.59
2022-08-02T20:30:25.539Z,100508.47
2022-08-02T20:32:27.243Z,100505.31
2022-08-02T20:34:30.087Z,100501.41
2022-08-02T20:36:31.695Z,100501.00
2022-08-02T20:38:34.816Z,100498.63
2022-08-02T20:40:36.477Z,100498.63
2022-08-02T20:42:38.285Z,100508.16
2022-08-02T20:44:40.711Z,100497.09
2022-08-02T20:46:43.100Z,100503.03
2022-08-02T20:48:44.999Z,100505.81
2022-08-02T20:50:49.384Z,100509.00
2022-08-02T20:52:52.347Z,100501.91
2022-08-02T20:54:55.360Z,100504.31
2022-08-02T20:56:56.981Z,100507.09
2022-08-02T20:59:03.773Z,100505.91
2022-08-02T21:01:13.356Z,100510.66
2022-08-02T21:03:16.544Z,100517.41
2022-08-02T21:05:26.803Z,100512.28
2022-08-02T21:07:43.024Z,100511.91
2022-08-02T21:09:53.560Z,100510.72
2022-08-02T21:11:57.333Z,100506.75
2022-08-02T21:14:07.973Z,100507.56
2022-08-02T21:16:13.676Z,100506.38
2022-08-02T21:18:26.575Z,100509.94
2022-08-02T21:20:37.817Z,100511.53
2022-08-02T21:22:39.525Z,100511.94
2022-08-02T21:24:41.086Z,100507.56
2022-08-02T21:26:42.744Z,100504.03
2022-08-02T21:28:51.752Z,100511.13
2022-08-02T21:30:53.419Z,100505.59
2022-08-02T21:32:55.007Z,100504.41
2022-08-02T21:34:58.752Z,100506.41
2022-08-02T21:37:00.339Z,100506.00
2022-08-02T21:39:11.663Z,100507.97
2022-08-02T21:41:13.492Z,100508.38
2022-08-02T21:43:15.091Z,100514.69
2022-08-02T21:45:20.062Z,100510.34
2022-08-02T21:47:21.868Z,100512.34
2022-08-02T21:49:41.174Z,100511.94
2022-08-02T21:51:49.528Z,100516.66
2022-08-02T21:54:18.171Z,100511.91
2022-08-02T21:56:13.611Z,100513.47
2022-08-02T21:58:15.259Z,100520.19
2022-08-02T22:00:28.921Z,100516.25
2022-08-02T22:02:31.244Z,100515.47
2022-08-02T22:04:32.983Z,100522.19
2022-08-02T22:06:35.036Z,100526.91
2022-08-02T22:08:38.074Z,100533.25
2022-08-02T22:10:39.738Z,100532.06
2022-08-02T22:12:45.406Z,100530.84
2022-08-02T22:14:49.570Z,100531.28
2022-08-02T22:16:56.673Z,100534.44
2022-08-02T22:18:59.706Z,100530.88
2022-08-02T22:21:01.472Z,100532.84
2022-08-02T22:23:04.089Z,100536.81
2022-08-02T22:25:26.783Z,100537.59
2022-08-02T22:28:38.784Z,100535.22
2022-08-02T22:29:57.455Z,100542.31
2022-08-02T22:32:01.289Z,100536.00
2022-08-02T22:34:03.895Z,100538.75
2022-08-02T22:36:05.941Z,100534.41
2022-08-02T22:40:34.802Z,100543.09
2022-08-02T22:42:36.629Z,100539.94
2022-08-02T22:44:44.109Z,100538.34
2022-08-02T22:46:46.292Z,100542.66
2022-08-02T22:48:49.337Z,100543.47
2022-08-02T22:50:50.903Z,100539.91
2022-08-02T22:52:52.574Z,100537.53
2022-08-02T22:54:54.770Z,100538.31
2022-08-02T22:56:56.524Z,100542.66
2022-08-02T22:59:09.599Z,100536.00
2022-08-02T23:01:17.595Z,100547.75
2022-08-02T23:03:19.193Z,100549.31
2022-08-02T23:05:22.137Z,100541.03
2022-08-02T23:07:23.776Z,100541.44
2022-08-02T23:09:25.380Z,100542.56
2022-08-02T23:11:26.950Z,100542.16
2022-08-02T23:13:28.568Z,100549.22
2022-08-02T23:15:30.189Z,100549.22
2022-08-02T23:17:35.830Z,100550.78
2022-08-02T23:19:37.428Z,100551.56
2022-08-02T23:22:02.119Z,100553.13
2022-08-02T23:24:02.033Z,100555.84
2022-08-02T23:26:04.115Z,100553.88
2022-08-02T23:28:05.671Z,100551.09
2022-08-02T23:30:08.198Z,100549.88
2022-08-02T23:32:09.868Z,100551.84
2022-08-02T23:34:11.506Z,100549.44
2022-08-02T23:36:13.089Z,100553.00
2022-08-02T23:38:16.073Z,100563.25
2022-08-02T23:40:31.416Z,100553.34
2022-08-02T23:42:39.322Z,100548.94
2022-08-02T23:44:41.059Z,100553.69
2022-08-02T23:46:42.776Z,100552.06
2022-08-02T23:48:44.292Z,100561.91
2022-08-02T23:50:45.875Z,100562.72